sensor_id;sensor_type;location;lat;lon;timestamp;P1;durP1;ratioP1;P2;durP2;ratioP2
22679;SDS011;11507;44.858;10.374;2022-09-24T00:01:21;13.15;;;8.93;;
22679;SDS011;11507;44.858;10.374;2022-09-24T00:03:50;12.93;;;8.70;;
22679;SDS011;11507;44.858;10.374;2022-09-24T00:06:18;14.25;;;9.15;;
22679;SDS011;11507;44.858;10.374;2022-09-24T00:08:46;13.35;;;7.60;;
22679;SDS011;11507;44.858;10.374;2022-09-24T00:11:13;9.32;;;6.80;;
22679;SDS011;11507;44.858;10.374;2022-09-24T00:13:40;14.20;;;7.45;;
22679;SDS011;11507;44.858;10.374;2022-09-24T00:20:59;11.07;;;6.18;;
22679;SDS011;11507;44.858;10.374;2022-09-24T00:25:51;9.57;;;6.03;;
22679;SDS011;11507;44.858;10.374;2022-09-24T00:28:37;8.85;;;6.05;;
22679;SDS011;11507;44.858;10.374;2022-09-24T00:31:03;10.65;;;6.07;;
22679;SDS011;11507;44.858;10.374;2022-09-24T00:33:31;13.05;;;6.15;;
22679;SDS011;11507;44.858;10.374;2022-09-24T00:36:02;9.18;;;5.50;;
22679;SDS011;11507;44.858;10.374;2022-09-24T00:38:30;8.00;;;5.70;;
22679;SDS011;11507;44.858;10.374;2022-09-24T00:40:57;9.95;;;5.43;;
22679;SDS011;11507;44.858;10.374;2022-09-24T00:43:25;10.90;;;6.30;;
22679;SDS011;11507;44.858;10.374;2022-09-24T00:46:06;9.65;;;5.30;;
22679;SDS011;11507;44.858;10.374;2022-09-24T00:48:36;7.57;;;5.25;;
22679;SDS011;11507;44.858;10.374;2022-09-24T00:51:05;8.02;;;5.53;;
22679;SDS011;11507;44.858;10.374;2022-09-24T00:53:32;7.78;;;5.35;;
22679;SDS011;11507;44.858;10.374;2022-09-24T00:55:58;10.00;;;5.45;;
22679;SDS011;11507;44.858;10.374;2022-09-24T00:58:27;8.50;;;5.97;;
22679;SDS011;11507;44.858;10.374;2022-09-24T01:01:06;8.23;;;5.03;;
22679;SDS011;11507;44.858;10.374;2022-09-24T01:03:33;8.32;;;5.35;;
22679;SDS011;11507;44.858;10.374;2022-09-24T01:06:06;9.20;;;5.30;;
22679;SDS011;11507;44.858;10.374;2022-09-24T01:08:34;7.95;;;5.25;;
22679;SDS011;11507;44.858;10.374;2022-09-24T01:19:37;10.60;;;5.78;;
22679;SDS011;11507;44.858;10.374;2022-09-24T01:21:40;7.07;;;5.07;;
22679;SDS011;11507;44.858;10.374;2022-09-24T01:24:21;9.45;;;5.88;;
22679;SDS011;11507;44.858;10.374;2022-09-24T01:27:02;8.15;;;6.13;;
22679;SDS011;11507;44.858;10.374;2022-09-24T01:34:58;11.15;;;6.95;;
22679;SDS011;11507;44.858;10.374;2022-09-24T01:37:44;9.75;;;6.70;;
22679;SDS011;11507;44.858;10.374;2022-09-24T01:40:19;9.90;;;6.43;;
22679;SDS011;11507;44.858;10.374;2022-09-24T01:42:48;9.80;;;6.55;;
22679;SDS011;11507;44.858;10.374;2022-09-24T01:45:16;10.27;;;6.35;;
22679;SDS011;11507;44.858;10.374;2022-09-24T01:47:43;9.85;;;6.57;;
22679;SDS011;11507;44.858;10.374;2022-09-24T01:52:40;9.45;;;5.78;;
22679;SDS011;11507;44.858;10.374;2022-09-24T01:55:19;10.18;;;6.30;;
22679;SDS011;11507;44.858;10.374;2022-09-24T01:57:51;9.27;;;6.03;;
22679;SDS011;11507;44.858;10.374;2022-09-24T02:00:23;9.80;;;5.47;;
22679;SDS011;11507;44.858;10.374;2022-09-24T02:05:33;8.93;;;6.00;;
22679;SDS011;11507;44.858;10.374;2022-09-24T02:10:43;10.75;;;6.40;;
22679;SDS011;11507;44.858;10.374;2022-09-24T02:13:22;11.45;;;5.90;;
22679;SDS011;11507;44.858;10.374;2022-09-24T02:15:53;9.70;;;5.78;;
22679;SDS011;11507;44.858;10.374;2022-09-24T02:18:24;10.52;;;5.90;;
22679;SDS011;11507;44.858;10.374;2022-09-24T02:20:53;7.80;;;5.20;;
22679;SDS011;11507;44.858;10.374;2022-09-24T02:23:20;9.30;;;5.78;;
22679;SDS011;11507;44.858;10.374;2022-09-24T02:25:55;7.45;;;5.25;;
22679;SDS011;11507;44.858;10.374;2022-09-24T02:28:25;11.30;;;6.35;;
22679;SDS011;11507;44.858;10.374;2022-09-24T02:33:24;8.20;;;5.10;;
22679;SDS011;11507;44.858;10.374;2022-09-24T02:36:10;8.73;;;5.53;;
22679;SDS011;11507;44.858;10.374;2022-09-24T02:38:36;9.00;;;6.13;;
22679;SDS011;11507;44.858;10.374;2022-09-24T02:41:03;9.25;;;5.80;;
22679;SDS011;11507;44.858;10.374;2022-09-24T02:43:32;10.57;;;5.70;;
22679;SDS011;11507;44.858;10.374;2022-09-24T02:46:00;11.18;;;5.50;;
22679;SDS011;11507;44.858;10.374;2022-09-24T02:48:26;9.35;;;5.10;;
22679;SDS011;11507;44.858;10.374;2022-09-24T02:53:18;9.10;;;5.45;;
22679;SDS011;11507;44.858;10.374;2022-09-24T02:58:09;10.18;;;6.22;;
22679;SDS011;11507;44.858;10.374;2022-09-24T03:03:01;9.80;;;6.20;;
22679;SDS011;11507;44.858;10.374;2022-09-24T03:05:28;11.05;;;6.25;;
22679;SDS011;11507;44.858;10.374;2022-09-24T03:10:20;13.35;;;6.93;;
22679;SDS011;11507;44.858;10.374;2022-09-24T03:15:11;10.23;;;5.80;;
22679;SDS011;11507;44.858;10.374;2022-09-24T03:20:05;9.30;;;6.45;;
22679;SDS011;11507;44.858;10.374;2022-09-24T03:22:32;10.88;;;7.13;;
22679;SDS011;11507;44.858;10.374;2022-09-24T03:24:58;9.68;;;7.30;;
22679;SDS011;11507;44.858;10.374;2022-09-24T03:27:24;11.07;;;7.78;;
22679;SDS011;11507;44.858;10.374;2022-09-24T03:32:35;10.77;;;7.63;;
22679;SDS011;11507;44.858;10.374;2022-09-24T03:37:26;10.10;;;6.90;;
22679;SDS011;11507;44.858;10.374;2022-09-24T03:42:19;11.38;;;8.00;;
22679;SDS011;11507;44.858;10.374;2022-09-24T03:47:11;14.35;;;9.02;;
22679;SDS011;11507;44.858;10.374;2022-09-24T03:49:37;13.00;;;8.13;;
22679;SDS011;11507;44.858;10.374;2022-09-24T03:52:04;12.63;;;8.43;;
22679;SDS011;11507;44.858;10.374;2022-09-24T03:56:55;13.07;;;8.82;;
22679;SDS011;11507;44.858;10.374;2022-09-24T04:01:47;13.00;;;8.40;;
22679;SDS011;11507;44.858;10.374;2022-09-24T04:06:40;12.60;;;8.60;;
22679;SDS011;11507;44.858;10.374;2022-09-24T04:11:31;12.20;;;9.05;;
22679;SDS011;11507;44.858;10.374;2022-09-24T04:13:59;15.27;;;10.60;;
22679;SDS011;11507;44.858;10.374;2022-09-24T04:16:26;14.38;;;10.15;;
22679;SDS011;11507;44.858;10.374;2022-09-24T04:21:19;13.98;;;10.20;;
22679;SDS011;11507;44.858;10.374;2022-09-24T04:23:45;14.82;;;9.52;;
22679;SDS011;11507;44.858;10.374;2022-09-24T04:26:11;14.75;;;9.65;;
22679;SDS011;11507;44.858;10.374;2022-09-24T04:31:03;13.95;;;9.55;;
22679;SDS011;11507;44.858;10.374;2022-09-24T04:33:30;13.63;;;10.05;;
22679;SDS011;11507;44.858;10.374;2022-09-24T04:38:23;13.90;;;10.40;;
22679;SDS011;11507;44.858;10.374;2022-09-24T04:43:14;16.75;;;10.48;;
22679;SDS011;11507;44.858;10.374;2022-09-24T04:45:41;15.40;;;10.07;;
22679;SDS011;11507;44.858;10.374;2022-09-24T04:48:09;16.13;;;11.60;;
22679;SDS011;11507;44.858;10.374;2022-09-24T04:50:36;14.15;;;10.50;;
22679;SDS011;11507;44.858;10.374;2022-09-24T04:53:03;14.50;;;10.35;;
22679;SDS011;11507;44.858;10.374;2022-09-24T04:57:56;15.80;;;10.05;;
22679;SDS011;11507;44.858;10.374;2022-09-24T05:00:23;14.98;;;11.15;;
22679;SDS011;11507;44.858;10.374;2022-09-24T05:03:07;15.82;;;10.07;;
22679;SDS011;11507;44.858;10.374;2022-09-24T05:05:33;16.75;;;10.48;;
22679;SDS011;11507;44.858;10.374;2022-09-24T05:08:01;13.90;;;10.98;;
22679;SDS011;11507;44.858;10.374;2022-09-24T05:10:29;18.13;;;11.18;;
22679;SDS011;11507;44.858;10.374;2022-09-24T05:12:59;15.85;;;11.88;;
22679;SDS011;11507;44.858;10.374;2022-09-24T05:15:26;17.30;;;11.75;;
22679;SDS011;11507;44.858;10.374;2022-09-24T05:20:18;16.30;;;12.15;;
22679;SDS011;11507;44.858;10.374;2022-09-24T05:25:11;14.38;;;10.23;;
22679;SDS011;11507;44.858;10.374;2022-09-24T05:27:45;14.75;;;11.10;;
22679;SDS011;11507;44.858;10.374;2022-09-24T05:30:12;17.33;;;11.00;;
22679;SDS011;11507;44.858;10.374;2022-09-24T05:32:39;15.85;;;11.52;;
22679;SDS011;11507;44.858;10.374;2022-09-24T05:37:33;16.08;;;11.93;;
22679;SDS011;11507;44.858;10.374;2022-09-24T05:40:03;18.33;;;13.02;;
22679;SDS011;11507;44.858;10.374;2022-09-24T05:42:49;20.13;;;13.02;;
22679;SDS011;11507;44.858;10.374;2022-09-24T05:45:15;16.25;;;12.02;;
22679;SDS011;11507;44.858;10.374;2022-09-24T05:47:43;16.15;;;12.02;;
22679;SDS011;11507;44.858;10.374;2022-09-24T05:50:10;19.40;;;13.07;;
22679;SDS011;11507;44.858;10.374;2022-09-24T05:52:38;16.25;;;12.25;;
22679;SDS011;11507;44.858;10.374;2022-09-24T05:55:05;18.52;;;13.40;;
22679;SDS011;11507;44.858;10.374;2022-09-24T05:57:32;19.70;;;13.88;;
22679;SDS011;11507;44.858;10.374;2022-09-24T05:59:58;19.45;;;13.77;;
22679;SDS011;11507;44.858;10.374;2022-09-24T06:04:50;19.10;;;12.93;;
22679;SDS011;11507;44.858;10.374;2022-09-24T06:07:16;17.42;;;12.55;;
22679;SDS011;11507;44.858;10.374;2022-09-24T06:12:08;17.95;;;12.10;;
22679;SDS011;11507;44.858;10.374;2022-09-24T06:14:35;19.33;;;12.25;;
22679;SDS011;11507;44.858;10.374;2022-09-24T06:17:01;17.20;;;12.15;;
22679;SDS011;11507;44.858;10.374;2022-09-24T06:19:28;19.08;;;12.90;;
22679;SDS011;11507;44.858;10.374;2022-09-24T06:24:19;16.63;;;11.82;;
22679;SDS011;11507;44.858;10.374;2022-09-24T06:26:48;31.05;;;14.00;;
22679;SDS011;11507;44.858;10.374;2022-09-24T06:29:14;16.95;;;12.73;;
22679;SDS011;11507;44.858;10.374;2022-09-24T06:31:40;21.80;;;13.23;;
22679;SDS011;11507;44.858;10.374;2022-09-24T06:36:33;37.50;;;15.00;;
22679;SDS011;11507;44.858;10.374;2022-09-24T06:38:59;23.60;;;12.88;;
22679;SDS011;11507;44.858;10.374;2022-09-24T06:43:55;17.30;;;11.93;;
22679;SDS011;11507;44.858;10.374;2022-09-24T06:46:21;62.10;;;16.98;;
22679;SDS011;11507;44.858;10.374;2022-09-24T06:48:50;27.77;;;14.68;;
22679;SDS011;11507;44.858;10.374;2022-09-24T06:51:19;36.78;;;14.90;;
22679;SDS011;11507;44.858;10.374;2022-09-24T06:53:45;22.08;;;13.35;;
22679;SDS011;11507;44.858;10.374;2022-09-24T06:56:11;19.80;;;12.95;;
22679;SDS011;11507;44.858;10.374;2022-09-24T07:01:03;22.73;;;12.30;;
22679;SDS011;11507;44.858;10.374;2022-09-24T07:03:32;18.55;;;12.80;;
22679;SDS011;11507;44.858;10.374;2022-09-24T07:05:59;44.35;;;15.07;;
22679;SDS011;11507;44.858;10.374;2022-09-24T07:08:26;20.48;;;13.30;;
22679;SDS011;11507;44.858;10.374;2022-09-24T07:13:18;24.65;;;12.30;;
22679;SDS011;11507;44.858;10.374;2022-09-24T07:15:48;23.10;;;15.23;;
22679;SDS011;11507;44.858;10.374;2022-09-24T07:18:15;18.63;;;13.23;;
22679;SDS011;11507;44.858;10.374;2022-09-24T07:20:42;20.95;;;12.57;;
22679;SDS011;11507;44.858;10.374;2022-09-24T07:25:35;15.05;;;11.68;;
22679;SDS011;11507;44.858;10.374;2022-09-24T07:28:07;16.73;;;11.85;;
22679;SDS011;11507;44.858;10.374;2022-09-24T07:30:37;19.88;;;12.13;;
22679;SDS011;11507;44.858;10.374;2022-09-24T07:33:04;15.80;;;11.63;;
22679;SDS011;11507;44.858;10.374;2022-09-24T07:35:31;17.38;;;12.27;;
22679;SDS011;11507;44.858;10.374;2022-09-24T07:38:05;18.58;;;11.52;;
22679;SDS011;11507;44.858;10.374;2022-09-24T07:40:33;17.42;;;12.60;;
22679;SDS011;11507;44.858;10.374;2022-09-24T07:42:59;20.65;;;12.52;;
22679;SDS011;11507;44.858;10.374;2022-09-24T07:45:25;18.13;;;11.93;;
22679;SDS011;11507;44.858;10.374;2022-09-24T07:47:57;14.85;;;11.80;;
22679;SDS011;11507;44.858;10.374;2022-09-24T07:50:23;18.15;;;12.00;;
22679;SDS011;11507;44.858;10.374;2022-09-24T07:52:49;16.15;;;12.10;;
22679;SDS011;11507;44.858;10.374;2022-09-24T07:55:15;15.38;;;11.70;;
22679;SDS011;11507;44.858;10.374;2022-09-24T07:57:47;15.45;;;11.70;;
22679;SDS011;11507;44.858;10.374;2022-09-24T08:00:14;16.13;;;11.77;;
22679;SDS011;11507;44.858;10.374;2022-09-24T08:02:42;20.33;;;11.73;;
22679;SDS011;11507;44.858;10.374;2022-09-24T08:05:09;14.90;;;11.57;;
22679;SDS011;11507;44.858;10.374;2022-09-24T08:07:35;18.50;;;11.40;;
22679;SDS011;11507;44.858;10.374;2022-09-24T08:10:00;18.20;;;11.25;;
22679;SDS011;11507;44.858;10.374;2022-09-24T08:12:27;18.35;;;10.98;;
22679;SDS011;11507;44.858;10.374;2022-09-24T08:14:53;17.58;;;10.95;;
22679;SDS011;11507;44.858;10.374;2022-09-24T08:17:19;19.05;;;11.45;;
22679;SDS011;11507;44.858;10.374;2022-09-24T08:19:45;17.48;;;11.35;;
22679;SDS011;11507;44.858;10.374;2022-09-24T08:22:11;15.10;;;10.40;;
22679;SDS011;11507;44.858;10.374;2022-09-24T08:24:40;14.45;;;10.40;;
22679;SDS011;11507;44.858;10.374;2022-09-24T08:27:06;24.63;;;10.70;;
22679;SDS011;11507;44.858;10.374;2022-09-24T08:29:32;14.80;;;10.15;;
22679;SDS011;11507;44.858;10.374;2022-09-24T08:31:59;15.68;;;10.50;;
22679;SDS011;11507;44.858;10.374;2022-09-24T08:34:25;12.70;;;9.75;;
22679;SDS011;11507;44.858;10.374;2022-09-24T08:36:51;15.65;;;10.75;;
22679;SDS011;11507;44.858;10.374;2022-09-24T08:39:17;16.05;;;10.63;;
22679;SDS011;11507;44.858;10.374;2022-09-24T08:41:49;13.80;;;10.65;;
22679;SDS011;11507;44.858;10.374;2022-09-24T08:44:26;13.32;;;10.38;;
22679;SDS011;11507;44.858;10.374;2022-09-24T08:50:23;16.00;;;10.18;;
22679;SDS011;11507;44.858;10.374;2022-09-24T08:53:09;13.15;;;9.85;;
22679;SDS011;11507;44.858;10.374;2022-09-24T08:55:57;13.45;;;10.02;;
22679;SDS011;11507;44.858;10.374;2022-09-24T08:58:39;15.70;;;10.40;;
22679;SDS011;11507;44.858;10.374;2022-09-24T09:03:48;13.50;;;9.70;;
22679;SDS011;11507;44.858;10.374;2022-09-24T09:23:02;14.48;;;9.90;;
22679;SDS011;11507;44.858;10.374;2022-09-24T09:26:00;14.38;;;9.80;;
22679;SDS011;11507;44.858;10.374;2022-09-24T09:44:58;14.00;;;10.35;;
22679;SDS011;11507;44.858;10.374;2022-09-24T09:53:01;17.63;;;10.40;;
22679;SDS011;11507;44.858;10.374;2022-09-24T09:55:30;16.95;;;10.05;;
22679;SDS011;11507;44.858;10.374;2022-09-24T10:00:44;15.15;;;10.00;;
22679;SDS011;11507;44.858;10.374;2022-09-24T10:05:56;15.10;;;10.55;;
22679;SDS011;11507;44.858;10.374;2022-09-24T10:08:24;14.52;;;10.73;;
22679;SDS011;11507;44.858;10.374;2022-09-24T10:10:56;12.85;;;10.07;;
22679;SDS011;11507;44.858;10.374;2022-09-24T10:13:24;18.83;;;10.75;;
22679;SDS011;11507;44.858;10.374;2022-09-24T10:15:55;15.35;;;10.10;;
22679;SDS011;11507;44.858;10.374;2022-09-24T10:21:04;16.92;;;11.77;;
22679;SDS011;11507;44.858;10.374;2022-09-24T10:23:36;18.33;;;12.18;;
22679;SDS011;11507;44.858;10.374;2022-09-24T10:26:05;16.63;;;12.20;;
22679;SDS011;11507;44.858;10.374;2022-09-24T10:28:33;21.10;;;13.07;;
22679;SDS011;11507;44.858;10.374;2022-09-24T10:31:22;22.05;;;13.35;;
22679;SDS011;11507;44.858;10.374;2022-09-24T10:33:54;18.00;;;12.70;;
22679;SDS011;11507;44.858;10.374;2022-09-24T10:36:29;21.13;;;13.60;;
22679;SDS011;11507;44.858;10.374;2022-09-24T10:41:32;21.80;;;13.07;;
22679;SDS011;11507;44.858;10.374;2022-09-24T10:44:00;15.68;;;12.32;;
22679;SDS011;11507;44.858;10.374;2022-09-24T10:46:38;18.55;;;13.20;;
22679;SDS011;11507;44.858;10.374;2022-09-24T10:57:57;18.98;;;13.35;;
22679;SDS011;11507;44.858;10.374;2022-09-24T11:09:19;15.50;;;11.35;;
22679;SDS011;11507;44.858;10.374;2022-09-24T11:12:06;16.45;;;11.40;;
22679;SDS011;11507;44.858;10.374;2022-09-24T11:14:47;19.90;;;11.90;;
22679;SDS011;11507;44.858;10.374;2022-09-24T11:25:46;16.45;;;12.27;;
22679;SDS011;11507;44.858;10.374;2022-09-24T11:49:27;14.68;;;11.45;;
22679;SDS011;11507;44.858;10.374;2022-09-24T11:51:49;16.75;;;12.10;;
22679;SDS011;11507;44.858;10.374;2022-09-24T12:00:04;14.25;;;11.77;;
22679;SDS011;11507;44.858;10.374;2022-09-24T12:05:43;17.08;;;13.40;;
22679;SDS011;11507;44.858;10.374;2022-09-24T12:11:02;15.63;;;12.73;;
22679;SDS011;11507;44.858;10.374;2022-09-24T12:13:33;16.10;;;12.93;;
22679;SDS011;11507;44.858;10.374;2022-09-24T12:16:31;16.85;;;13.57;;
22679;SDS011;11507;44.858;10.374;2022-09-24T12:19:21;21.35;;;13.93;;
22679;SDS011;11507;44.858;10.374;2022-09-24T12:21:49;18.83;;;13.60;;
22679;SDS011;11507;44.858;10.374;2022-09-24T12:26:53;19.08;;;12.35;;
22679;SDS011;11507;44.858;10.374;2022-09-24T12:29:43;21.52;;;14.13;;
22679;SDS011;11507;44.858;10.374;2022-09-24T12:32:37;18.77;;;14.00;;
22679;SDS011;11507;44.858;10.374;2022-09-24T12:38:17;21.67;;;14.43;;
22679;SDS011;11507;44.858;10.374;2022-09-24T12:40:54;21.63;;;15.43;;
22679;SDS011;11507;44.858;10.374;2022-09-24T12:46:22;22.10;;;14.88;;
22679;SDS011;11507;44.858;10.374;2022-09-24T12:48:52;19.45;;;14.77;;
22679;SDS011;11507;44.858;10.374;2022-09-24T12:51:19;19.08;;;14.98;;
22679;SDS011;11507;44.858;10.374;2022-09-24T12:53:57;19.85;;;14.63;;
22679;SDS011;11507;44.858;10.374;2022-09-24T12:56:28;19.55;;;15.40;;
22679;SDS011;11507;44.858;10.374;2022-09-24T12:58:55;20.27;;;15.82;;
22679;SDS011;11507;44.858;10.374;2022-09-24T13:04:05;20.42;;;15.80;;
22679;SDS011;11507;44.858;10.374;2022-09-24T13:06:41;18.58;;;14.60;;
22679;SDS011;11507;44.858;10.374;2022-09-24T13:15:07;19.45;;;14.02;;
22679;SDS011;11507;44.858;10.374;2022-09-24T13:17:58;19.73;;;13.98;;
22679;SDS011;11507;44.858;10.374;2022-09-24T13:20:29;19.08;;;14.10;;
22679;SDS011;11507;44.858;10.374;2022-09-24T13:22:57;18.55;;;14.32;;
22679;SDS011;11507;44.858;10.374;2022-09-24T13:25:36;21.17;;;14.00;;
22679;SDS011;11507;44.858;10.374;2022-09-24T13:28:03;17.45;;;13.80;;
22679;SDS011;11507;44.858;10.374;2022-09-24T13:31:13;18.55;;;13.82;;
22679;SDS011;11507;44.858;10.374;2022-09-24T13:34:02;19.75;;;14.65;;
22679;SDS011;11507;44.858;10.374;2022-09-24T13:44:42;21.60;;;15.35;;
22679;SDS011;11507;44.858;10.374;2022-09-24T13:50:22;21.08;;;14.60;;
22679;SDS011;11507;44.858;10.374;2022-09-24T13:57:58;20.50;;;14.18;;
22679;SDS011;11507;44.858;10.374;2022-09-24T14:00:28;20.38;;;14.15;;
22679;SDS011;11507;44.858;10.374;2022-09-24T14:05:53;19.55;;;14.60;;
22679;SDS011;11507;44.858;10.374;2022-09-24T14:08:21;20.45;;;15.10;;
22679;SDS011;11507;44.858;10.374;2022-09-24T14:10:49;18.23;;;14.02;;
22679;SDS011;11507;44.858;10.374;2022-09-24T14:13:22;23.52;;;14.82;;
22679;SDS011;11507;44.858;10.374;2022-09-24T14:15:53;21.10;;;15.05;;
22679;SDS011;11507;44.858;10.374;2022-09-24T14:18:32;22.77;;;16.13;;
22679;SDS011;11507;44.858;10.374;2022-09-24T14:23:59;19.73;;;14.48;;
22679;SDS011;11507;44.858;10.374;2022-09-24T14:26:27;21.95;;;15.73;;
22679;SDS011;11507;44.858;10.374;2022-09-24T14:28:54;20.35;;;15.60;;
22679;SDS011;11507;44.858;10.374;2022-09-24T14:31:22;21.42;;;16.08;;
22679;SDS011;11507;44.858;10.374;2022-09-24T14:33:50;21.65;;;16.02;;
22679;SDS011;11507;44.858;10.374;2022-09-24T14:36:16;21.33;;;16.20;;
22679;SDS011;11507;44.858;10.374;2022-09-24T14:38:46;23.52;;;15.60;;
22679;SDS011;11507;44.858;10.374;2022-09-24T14:41:22;23.02;;;16.33;;
22679;SDS011;11507;44.858;10.374;2022-09-24T14:43:58;22.60;;;15.15;;
22679;SDS011;11507;44.858;10.374;2022-09-24T14:46:31;21.13;;;15.63;;
22679;SDS011;11507;44.858;10.374;2022-09-24T14:49:05;17.23;;;14.73;;
22679;SDS011;11507;44.858;10.374;2022-09-24T14:51:58;21.42;;;15.27;;
22679;SDS011;11507;44.858;10.374;2022-09-24T14:54:35;21.90;;;15.43;;
22679;SDS011;11507;44.858;10.374;2022-09-24T14:59:44;21.10;;;15.20;;
22679;SDS011;11507;44.858;10.374;2022-09-24T15:02:19;22.35;;;16.05;;
22679;SDS011;11507;44.858;10.374;2022-09-24T15:04:51;20.92;;;16.52;;
22679;SDS011;11507;44.858;10.374;2022-09-24T15:07:23;25.50;;;15.80;;
22679;SDS011;11507;44.858;10.374;2022-09-24T15:09:52;22.00;;;16.58;;
22679;SDS011;11507;44.858;10.374;2022-09-24T15:12:24;23.13;;;16.50;;
22679;SDS011;11507;44.858;10.374;2022-09-24T15:15:00;20.75;;;15.52;;
22679;SDS011;11507;44.858;10.374;2022-09-24T15:17:49;23.20;;;16.85;;
22679;SDS011;11507;44.858;10.374;2022-09-24T15:20:15;21.60;;;15.68;;
22679;SDS011;11507;44.858;10.374;2022-09-24T15:22:41;21.40;;;15.52;;
22679;SDS011;11507;44.858;10.374;2022-09-24T15:25:07;22.45;;;16.17;;
22679;SDS011;11507;44.858;10.374;2022-09-24T15:27:38;20.73;;;15.77;;
22679;SDS011;11507;44.858;10.374;2022-09-24T15:30:08;21.80;;;16.65;;
22679;SDS011;11507;44.858;10.374;2022-09-24T15:32:36;22.30;;;17.10;;
22679;SDS011;11507;44.858;10.374;2022-09-24T15:35:04;23.48;;;16.33;;
22679;SDS011;11507;44.858;10.374;2022-09-24T15:37:33;25.15;;;16.08;;
22679;SDS011;11507;44.858;10.374;2022-09-24T15:40:04;25.65;;;16.45;;
22679;SDS011;11507;44.858;10.374;2022-09-24T15:42:40;20.88;;;16.20;;
22679;SDS011;11507;44.858;10.374;2022-09-24T15:45:16;24.08;;;16.10;;
22679;SDS011;11507;44.858;10.374;2022-09-24T15:47:46;22.15;;;16.60;;
22679;SDS011;11507;44.858;10.374;2022-09-24T15:50:16;22.95;;;17.27;;
22679;SDS011;11507;44.858;10.374;2022-09-24T15:52:45;24.23;;;17.65;;
22679;SDS011;11507;44.858;10.374;2022-09-24T15:55:17;24.63;;;17.80;;
22679;SDS011;11507;44.858;10.374;2022-09-24T15:57:45;23.05;;;17.63;;
22679;SDS011;11507;44.858;10.374;2022-09-24T16:00:12;28.38;;;17.58;;
22679;SDS011;11507;44.858;10.374;2022-09-24T16:02:44;22.70;;;17.35;;
22679;SDS011;11507;44.858;10.374;2022-09-24T16:05:19;23.83;;;17.25;;
22679;SDS011;11507;44.858;10.374;2022-09-24T16:07:46;22.17;;;16.25;;
22679;SDS011;11507;44.858;10.374;2022-09-24T16:10:13;22.67;;;16.90;;
22679;SDS011;11507;44.858;10.374;2022-09-24T16:12:40;21.63;;;17.13;;
22679;SDS011;11507;44.858;10.374;2022-09-24T16:15:07;23.73;;;17.83;;
22679;SDS011;11507;44.858;10.374;2022-09-24T16:17:37;28.63;;;17.63;;
22679;SDS011;11507;44.858;10.374;2022-09-24T16:20:03;25.83;;;18.58;;
22679;SDS011;11507;44.858;10.374;2022-09-24T16:22:31;27.25;;;20.10;;
22679;SDS011;11507;44.858;10.374;2022-09-24T16:24:59;25.50;;;19.23;;
22679;SDS011;11507;44.858;10.374;2022-09-24T16:27:25;31.05;;;20.30;;
22679;SDS011;11507;44.858;10.374;2022-09-24T16:29:50;26.33;;;19.42;;
22679;SDS011;11507;44.858;10.374;2022-09-24T16:32:16;27.73;;;19.77;;
22679;SDS011;11507;44.858;10.374;2022-09-24T16:34:42;27.80;;;20.20;;
22679;SDS011;11507;44.858;10.374;2022-09-24T16:37:08;25.77;;;20.05;;
22679;SDS011;11507;44.858;10.374;2022-09-24T16:39:34;30.73;;;20.02;;
22679;SDS011;11507;44.858;10.374;2022-09-24T16:42:00;27.15;;;19.75;;
22679;SDS011;11507;44.858;10.374;2022-09-24T16:44:26;26.17;;;19.75;;
22679;SDS011;11507;44.858;10.374;2022-09-24T16:46:52;33.88;;;25.20;;
22679;SDS011;11507;44.858;10.374;2022-09-24T16:49:18;31.77;;;25.27;;
22679;SDS011;11507;44.858;10.374;2022-09-24T16:51:46;39.30;;;30.20;;
22679;SDS011;11507;44.858;10.374;2022-09-24T16:54:12;35.90;;;25.20;;
22679;SDS011;11507;44.858;10.374;2022-09-24T16:56:38;32.88;;;25.50;;
22679;SDS011;11507;44.858;10.374;2022-09-24T16:59:05;29.77;;;24.00;;
22679;SDS011;11507;44.858;10.374;2022-09-24T17:01:33;31.55;;;23.35;;
22679;SDS011;11507;44.858;10.374;2022-09-24T17:03:59;37.28;;;26.10;;
22679;SDS011;11507;44.858;10.374;2022-09-24T17:06:28;32.15;;;25.63;;
22679;SDS011;11507;44.858;10.374;2022-09-24T17:08:55;35.40;;;25.33;;
22679;SDS011;11507;44.858;10.374;2022-09-24T17:11:40;34.05;;;24.25;;
22679;SDS011;11507;44.858;10.374;2022-09-24T17:14:09;35.40;;;24.38;;
22679;SDS011;11507;44.858;10.374;2022-09-24T17:16:38;33.67;;;24.67;;
22679;SDS011;11507;44.858;10.374;2022-09-24T17:19:05;33.78;;;25.17;;
22679;SDS011;11507;44.858;10.374;2022-09-24T17:21:35;32.85;;;24.30;;
22679;SDS011;11507;44.858;10.374;2022-09-24T17:24:04;37.05;;;25.10;;
22679;SDS011;11507;44.858;10.374;2022-09-24T17:26:32;34.75;;;23.88;;
22679;SDS011;11507;44.858;10.374;2022-09-24T17:28:57;32.05;;;23.40;;
22679;SDS011;11507;44.858;10.374;2022-09-24T17:31:24;35.22;;;24.73;;
22679;SDS011;11507;44.858;10.374;2022-09-24T17:33:58;31.83;;;23.92;;
22679;SDS011;11507;44.858;10.374;2022-09-24T17:36:26;33.10;;;24.77;;
22679;SDS011;11507;44.858;10.374;2022-09-24T17:38:55;32.97;;;24.45;;
22679;SDS011;11507;44.858;10.374;2022-09-24T17:41:21;32.65;;;24.02;;
22679;SDS011;11507;44.858;10.374;2022-09-24T17:43:47;30.67;;;23.90;;
22679;SDS011;11507;44.858;10.374;2022-09-24T17:46:15;31.40;;;22.98;;
22679;SDS011;11507;44.858;10.374;2022-09-24T17:48:50;32.47;;;23.40;;
22679;SDS011;11507;44.858;10.374;2022-09-24T17:51:21;36.97;;;24.70;;
22679;SDS011;11507;44.858;10.374;2022-09-24T17:53:50;30.48;;;23.38;;
22679;SDS011;11507;44.858;10.374;2022-09-24T17:56:18;34.90;;;25.65;;
22679;SDS011;11507;44.858;10.374;2022-09-24T17:58:45;38.35;;;27.10;;
22679;SDS011;11507;44.858;10.374;2022-09-24T18:01:12;34.35;;;25.55;;
22679;SDS011;11507;44.858;10.374;2022-09-24T18:03:41;36.08;;;25.15;;
22679;SDS011;11507;44.858;10.374;2022-09-24T18:06:09;35.15;;;26.02;;
22679;SDS011;11507;44.858;10.374;2022-09-24T18:08:43;34.53;;;25.10;;
22679;SDS011;11507;44.858;10.374;2022-09-24T18:11:11;34.65;;;25.88;;
22679;SDS011;11507;44.858;10.374;2022-09-24T18:13:39;30.60;;;24.17;;
22679;SDS011;11507;44.858;10.374;2022-09-24T18:16:07;36.58;;;26.50;;
22679;SDS011;11507;44.858;10.374;2022-09-24T18:18:37;34.85;;;25.52;;
22679;SDS011;11507;44.858;10.374;2022-09-24T18:21:04;35.08;;;26.23;;
22679;SDS011;11507;44.858;10.374;2022-09-24T18:23:33;34.92;;;25.63;;
22679;SDS011;11507;44.858;10.374;2022-09-24T18:26:06;33.97;;;25.45;;
22679;SDS011;11507;44.858;10.374;2022-09-24T18:28:47;33.00;;;25.70;;
22679;SDS011;11507;44.858;10.374;2022-09-24T18:31:15;31.55;;;23.02;;
22679;SDS011;11507;44.858;10.374;2022-09-24T18:33:42;31.00;;;23.33;;
22679;SDS011;11507;44.858;10.374;2022-09-24T18:36:12;32.08;;;24.77;;
22679;SDS011;11507;44.858;10.374;2022-09-24T18:38:40;35.03;;;24.75;;
22679;SDS011;11507;44.858;10.374;2022-09-24T18:41:13;37.67;;;26.48;;
22679;SDS011;11507;44.858;10.374;2022-09-24T18:43:40;38.67;;;26.70;;
22679;SDS011;11507;44.858;10.374;2022-09-24T18:46:08;35.75;;;26.85;;
22679;SDS011;11507;44.858;10.374;2022-09-24T18:48:39;32.55;;;25.38;;
22679;SDS011;11507;44.858;10.374;2022-09-24T18:51:07;37.33;;;27.27;;